createdAt,value
2018-07-25T00:01:17.194Z,7.33
2018-07-25T00:03:44.487Z,7.73
2018-07-25T00:06:11.824Z,7.37
2018-07-25T00:08:39.418Z,7.17
2018-07-25T00:11:07.618Z,8.00
2018-07-25T00:13:34.897Z,8.50
2018-07-25T00:16:02.271Z,8.17
2018-07-25T00:18:29.762Z,9.27
2018-07-25T00:20:57.442Z,7.90
2018-07-25T00:23:24.895Z,7.37
2018-07-25T00:25:52.243Z,6.30
2018-07-25T00:28:19.475Z,6.93
2018-07-25T00:30:46.812Z,7.97
2018-07-25T00:33:14.144Z,7.27
2018-07-25T00:35:41.645Z,7.70
2018-07-25T00:38:08.967Z,11.73
2018-07-25T00:40:36.340Z,6.80
2018-07-25T00:43:03.688Z,7.17
2018-07-25T00:45:31.105Z,7.97
2018-07-25T00:47:58.613Z,8.23
2018-07-25T00:50:26.336Z,8.33
2018-07-25T00:52:53.663Z,7.73
2018-07-25T00:55:20.934Z,7.83
2018-07-25T00:57:48.478Z,8.30
2018-07-25T01:00:17.519Z,7.90
2018-07-25T01:02:44.882Z,7.80
2018-07-25T01:05:12.287Z,8.30
2018-07-25T01:07:39.602Z,8.47
2018-07-25T01:10:06.875Z,8.53
2018-07-25T01:12:34.789Z,8.10
2018-07-25T01:15:02.564Z,8.03
2018-07-25T01:17:29.876Z,8.00
2018-07-25T01:19:57.192Z,8.13
2018-07-25T01:22:24.501Z,7.47
2018-07-25T01:24:51.789Z,8.70
2018-07-25T01:27:19.081Z,8.03
2018-07-25T01:29:46.423Z,7.60
2018-07-25T01:32:13.801Z,8.60
2018-07-25T01:34:41.197Z,7.87
2018-07-25T01:37:08.447Z,8.40
2018-07-25T01:39:35.802Z,8.17
2018-07-25T01:42:03.254Z,8.17
2018-07-25T01:44:30.733Z,8.03
2018-07-25T01:46:57.994Z,8.10
2018-07-25T01:49:25.296Z,7.37
2018-07-25T01:51:53.199Z,8.40
2018-07-25T01:54:20.498Z,7.73
2018-07-25T01:56:48.799Z,8.10
2018-07-25T01:59:16.986Z,8.70
2018-07-25T02:01:44.308Z,7.30
2018-07-25T02:04:11.590Z,7.70
2018-07-25T02:06:38.904Z,8.10
2018-07-25T02:09:07.868Z,8.30
2018-07-25T02:11:35.284Z,12.13
2018-07-25T02:14:03.074Z,8.60
2018-07-25T02:16:30.373Z,9.67
2018-07-25T02:18:57.673Z,9.53
2018-07-25T02:21:25.052Z,9.37
2018-07-25T02:23:52.357Z,10.10
2018-07-25T02:26:19.679Z,9.17
2018-07-25T02:28:46.970Z,9.10
2018-07-25T02:31:14.277Z,9.63
2018-07-25T02:33:47.159Z,9.43
2018-07-25T02:36:14.537Z,9.30
2018-07-25T02:38:41.822Z,8.77
2018-07-25T02:41:09.121Z,9.70
2018-07-25T02:43:36.465Z,9.27
2018-07-25T02:46:03.726Z,8.47
2018-07-25T02:48:31.103Z,8.43
2018-07-25T02:50:59.153Z,7.50
2018-07-25T02:53:26.429Z,8.67
2018-07-25T02:57:18.070Z,8.33
2018-07-25T02:59:45.381Z,8.90
2018-07-25T03:02:12.915Z,8.37
2018-07-25T03:04:40.248Z,7.80
2018-07-25T03:07:07.560Z,8.67
2018-07-25T03:09:34.920Z,9.10
2018-07-25T03:12:02.466Z,7.70
2018-07-25T03:14:29.772Z,9.00
2018-07-25T03:16:57.950Z,8.27
2018-07-25T03:19:25.383Z,9.47
2018-07-25T03:21:52.704Z,9.67
2018-07-25T03:24:19.992Z,9.03
2018-07-25T03:26:47.268Z,7.90
2018-07-25T03:29:15.146Z,7.87
2018-07-25T03:31:42.646Z,9.23
2018-07-25T03:34:10.149Z,8.10
2018-07-25T03:36:37.519Z,7.90
2018-07-25T03:39:05.989Z,8.47
2018-07-25T03:41:33.320Z,8.33
2018-07-25T03:44:00.619Z,9.57
2018-07-25T03:46:28.035Z,8.50
2018-07-25T03:48:55.419Z,8.60
2018-07-25T03:51:22.741Z,9.30
2018-07-25T03:53:50.093Z,9.47
2018-07-25T03:56:17.583Z,8.60
2018-07-25T03:58:44.929Z,9.33
2018-07-25T04:01:12.483Z,8.83
2018-07-25T04:03:39.782Z,8.67
2018-07-25T04:06:07.421Z,8.57
2018-07-25T04:08:34.822Z,9.20
2018-07-25T04:11:02.301Z,9.00
2018-07-25T04:13:29.771Z,9.03
2018-07-25T04:15:57.097Z,8.77
2018-07-25T04:18:24.678Z,8.53
2018-07-25T04:20:52.168Z,8.03
2018-07-25T04:23:19.645Z,9.13
2018-07-25T04:25:46.986Z,9.33
2018-07-25T04:28:14.311Z,9.73
2018-07-25T04:30:41.652Z,10.13
2018-07-25T04:33:09.047Z,8.90
2018-07-25T04:35:36.390Z,8.47
2018-07-25T04:38:03.743Z,9.03
2018-07-25T04:40:31.079Z,9.20
2018-07-25T04:42:58.390Z,8.70
2018-07-25T04:45:25.833Z,8.90
2018-07-25T04:47:53.433Z,9.00
2018-07-25T04:50:20.772Z,9.30
2018-07-25T04:52:48.239Z,9.30
2018-07-25T04:55:15.526Z,9.00
2018-07-25T04:57:42.859Z,9.50
2018-07-25T05:00:10.192Z,9.40
2018-07-25T05:02:37.531Z,9.63
2018-07-25T05:05:05.056Z,10.03
2018-07-25T05:07:32.390Z,9.40
2018-07-25T05:09:59.706Z,10.07
2018-07-25T05:12:27.060Z,11.27
2018-07-25T05:14:54.372Z,11.77
2018-07-25T05:17:22.530Z,10.90
2018-07-25T05:19:49.866Z,10.30
2018-07-25T05:22:17.138Z,9.50
2018-07-25T05:24:45.166Z,13.07
2018-07-25T05:27:12.600Z,13.03
2018-07-25T05:29:39.961Z,13.93
2018-07-25T05:32:07.527Z,10.03
2018-07-25T05:34:35.876Z,11.20
2018-07-25T05:37:03.345Z,15.63
2018-07-25T05:39:30.866Z,15.10
2018-07-25T05:41:58.184Z,11.13
2018-07-25T05:44:25.535Z,14.33
2018-07-25T05:46:52.831Z,9.47
2018-07-25T05:49:20.223Z,10.13
2018-07-25T05:51:47.494Z,12.53
2018-07-25T05:54:14.841Z,15.17
2018-07-25T05:56:42.404Z,10.73
2018-07-25T05:59:09.804Z,10.43
2018-07-25T06:01:37.216Z,9.57
2018-07-25T06:04:04.805Z,11.30
2018-07-25T06:06:32.128Z,9.17
2018-07-25T06:08:59.460Z,14.90
2018-07-25T06:11:26.825Z,10.80
2018-07-25T06:13:54.118Z,10.63
2018-07-25T06:16:21.548Z,11.33
2018-07-25T06:18:48.863Z,11.90
2018-07-25T06:21:16.227Z,10.33
2018-07-25T06:23:43.689Z,11.50
2018-07-25T06:26:11.194Z,10.00
2018-07-25T06:28:39.537Z,10.73
2018-07-25T06:31:07.314Z,9.53
2018-07-25T06:33:34.774Z,13.43
2018-07-25T06:36:02.066Z,10.60
2018-07-25T06:38:29.583Z,9.27
2018-07-25T06:40:56.946Z,9.37
2018-07-25T06:43:24.295Z,9.27
2018-07-25T06:45:51.591Z,8.90
2018-07-25T06:48:19.032Z,9.97
2018-07-25T06:50:46.405Z,9.07
2018-07-25T06:53:13.840Z,8.47
2018-07-25T06:55:41.352Z,8.93
2018-07-25T06:58:08.691Z,8.17
2018-07-25T07:00:35.967Z,8.37
2018-07-25T07:03:03.321Z,6.23
2018-07-25T07:05:31.524Z,6.97
2018-07-25T07:07:58.824Z,8.90
2018-07-25T07:10:26.176Z,11.23
2018-07-25T07:12:53.544Z,6.57
2018-07-25T07:15:21.093Z,7.47
2018-07-25T07:17:48.369Z,6.47
2018-07-25T07:20:15.756Z,7.30
2018-07-25T07:22:43.847Z,6.90
2018-07-25T07:25:11.511Z,6.80
2018-07-25T07:27:38.975Z,6.60
2018-07-25T07:30:06.872Z,6.50
2018-07-25T07:32:34.227Z,6.27
2018-07-25T07:35:01.635Z,6.57
2018-07-25T07:37:59.445Z,6.80
2018-07-25T07:40:26.766Z,14.97
2018-07-25T07:42:54.224Z,16.47
2018-07-25T07:45:21.589Z,9.20
2018-07-25T07:47:49.021Z,7.07
2018-07-25T07:50:16.328Z,7.30
2018-07-25T07:52:43.644Z,7.33
2018-07-25T07:55:11.067Z,6.37
2018-07-25T07:57:38.425Z,6.43
2018-07-25T08:00:06.614Z,7.30
2018-07-25T08:02:34.098Z,7.10
2018-07-25T08:05:01.562Z,6.90
2018-07-25T08:07:29.207Z,7.53
2018-07-25T08:09:56.749Z,7.90
2018-07-25T08:12:24.068Z,8.03
2018-07-25T08:14:51.454Z,8.17
2018-07-25T08:17:18.934Z,6.07
2018-07-25T08:19:46.317Z,6.80
2018-07-25T08:22:13.753Z,6.53
2018-07-25T08:24:41.100Z,7.03
2018-07-25T08:27:08.768Z,13.03
2018-07-25T08:29:36.194Z,6.90
2018-07-25T08:32:03.515Z,7.00
2018-07-25T08:34:31.140Z,7.43
2018-07-25T08:36:58.487Z,7.33
2018-07-25T08:39:25.942Z,6.77
2018-07-25T08:41:53.424Z,7.13
2018-07-25T08:44:20.698Z,7.20
2018-07-25T08:46:48.051Z,7.07
2018-07-25T08:49:15.311Z,7.30
2018-07-25T08:51:42.604Z,9.70
2018-07-25T08:54:09.895Z,11.33
2018-07-25T08:56:37.277Z,7.00
2018-07-25T08:59:04.691Z,8.83
2018-07-25T09:01:32.079Z,6.07
2018-07-25T09:03:59.414Z,6.33
2018-07-25T09:06:27.159Z,7.13
2018-07-25T09:08:54.505Z,10.00
2018-07-25T09:11:26.039Z,7.30
2018-07-25T09:13:53.366Z,6.77
2018-07-25T09:16:20.763Z,5.83
2018-07-25T09:18:48.085Z,11.83
2018-07-25T09:21:15.551Z,6.67
2018-07-25T09:23:42.859Z,6.80
2018-07-25T09:26:10.246Z,6.27
2018-07-25T09:28:37.866Z,6.07
2018-07-25T09:31:05.426Z,8.90
2018-07-25T09:33:32.850Z,5.93
2018-07-25T09:36:00.412Z,6.40
2018-07-25T09:38:27.745Z,6.50
2018-07-25T09:40:55.162Z,6.43
2018-07-25T09:43:22.458Z,6.07
2018-07-25T09:45:49.764Z,10.50
2018-07-25T09:48:17.265Z,6.10
2018-07-25T09:50:44.670Z,5.87
2018-07-25T09:53:12.105Z,5.90
2018-07-25T09:55:39.285Z,5.80
2018-07-25T09:58:06.781Z,7.03
2018-07-25T10:00:39.461Z,6.33
2018-07-25T10:03:06.945Z,5.47
2018-07-25T10:05:34.291Z,5.37
2018-07-25T10:08:01.661Z,5.60
2018-07-25T10:10:29.265Z,5.90
2018-07-25T10:12:56.715Z,5.03
2018-07-25T10:15:24.201Z,5.10
2018-07-25T10:17:51.715Z,4.90
2018-07-25T10:20:19.155Z,6.17
2018-07-25T10:22:46.504Z,5.63
2018-07-25T10:25:13.843Z,4.70
2018-07-25T10:27:41.230Z,7.13
2018-07-25T10:30:09.053Z,14.90
2018-07-25T10:32:36.397Z,4.17
2018-07-25T10:35:03.781Z,3.60
2018-07-25T10:37:31.854Z,4.20
2018-07-25T10:39:59.433Z,3.83
2018-07-25T10:42:26.857Z,4.30
2018-07-25T10:44:54.209Z,4.47
2018-07-25T10:47:21.598Z,5.57
2018-07-25T10:49:48.965Z,5.87
2018-07-25T10:54:49.984Z,4.33
2018-07-25T10:57:17.430Z,4.20
2018-07-25T10:59:44.864Z,4.13
2018-07-25T11:02:12.479Z,4.20
2018-07-25T11:04:39.822Z,6.43
2018-07-25T11:07:07.292Z,3.90
2018-07-25T11:09:34.945Z,4.63
2018-07-25T11:12:02.221Z,4.50
2018-07-25T11:14:29.678Z,4.77
2018-07-25T11:16:57.121Z,5.07
2018-07-25T11:19:24.500Z,4.83
2018-07-25T11:21:51.994Z,5.20
2018-07-25T11:24:19.353Z,5.30
2018-07-25T11:26:46.690Z,6.43
2018-07-25T11:29:14.338Z,4.10
2018-07-25T11:31:41.821Z,4.03
2018-07-25T11:34:09.407Z,4.50
2018-07-25T11:36:36.723Z,6.43
2018-07-25T11:39:06.706Z,4.00
2018-07-25T11:42:58.438Z,5.03
2018-07-25T11:45:25.981Z,4.53
2018-07-25T11:47:53.599Z,4.20
2018-07-25T11:50:21.380Z,6.23
2018-07-25T11:52:48.707Z,6.73
2018-07-25T11:55:16.163Z,4.40
2018-07-25T11:57:43.429Z,3.77
2018-07-25T12:00:10.843Z,7.03
2018-07-25T12:02:38.273Z,4.03
2018-07-25T12:05:05.648Z,3.40
2018-07-25T12:07:33.215Z,5.03
2018-07-25T12:10:00.527Z,3.67
2018-07-25T12:12:27.855Z,3.20
2018-07-25T12:14:55.280Z,6.87
2018-07-25T12:17:23.636Z,4.03
2018-07-25T12:19:51.054Z,3.43
2018-07-25T12:22:18.428Z,3.90
2018-07-25T12:24:45.884Z,3.30
2018-07-25T12:27:13.550Z,2.50
2018-07-25T12:29:40.926Z,3.20
2018-07-25T12:32:08.360Z,3.10
2018-07-25T12:34:35.641Z,6.30
2018-07-25T12:37:03.097Z,3.17
2018-07-25T12:39:30.591Z,3.30
2018-07-25T12:41:58.225Z,3.10
2018-07-25T12:44:25.657Z,3.23
2018-07-25T12:46:53.050Z,6.40
2018-07-25T12:49:20.357Z,5.43
2018-07-25T12:51:47.711Z,4.77
2018-07-25T12:54:15.217Z,6.83
2018-07-25T12:56:42.493Z,5.40
2018-07-25T12:59:09.784Z,3.77
2018-07-25T13:01:37.267Z,3.63
2018-07-25T13:04:05.225Z,3.60
2018-07-25T13:06:32.794Z,3.57
2018-07-25T13:09:00.132Z,3.37
2018-07-25T13:11:27.581Z,3.00
2018-07-25T13:13:54.932Z,3.50
2018-07-25T13:16:22.311Z,3.47
2018-07-25T13:18:49.667Z,3.13
2018-07-25T13:21:17.129Z,3.10
2018-07-25T13:23:44.690Z,3.20
2018-07-25T13:26:12.146Z,3.87
2018-07-25T13:28:39.631Z,4.00
2018-07-25T13:31:07.046Z,3.27
2018-07-25T13:33:34.642Z,5.73
2018-07-25T13:36:02.097Z,3.27
2018-07-25T13:38:29.555Z,2.70
2018-07-25T13:40:56.958Z,3.73
2018-07-25T13:43:24.318Z,3.83
2018-07-25T13:45:51.816Z,12.50
2018-07-25T13:48:19.259Z,3.77
2018-07-25T13:50:46.647Z,4.87
2018-07-25T13:53:14.207Z,3.17
2018-07-25T13:55:41.544Z,3.80
2018-07-25T13:58:08.850Z,3.17
2018-07-25T14:00:36.221Z,5.00
2018-07-25T14:03:03.599Z,5.20
2018-07-25T14:05:31.212Z,3.40
2018-07-25T14:07:58.642Z,3.90
2018-07-25T14:10:26.262Z,3.47
2018-07-25T14:12:53.651Z,4.13
2018-07-25T14:15:21.055Z,5.23
2018-07-25T14:17:48.427Z,4.70
2018-07-25T14:20:15.967Z,3.13
2018-07-25T14:22:43.329Z,8.13
2018-07-25T14:25:10.878Z,6.87
2018-07-25T14:27:38.650Z,5.17
2018-07-25T14:30:06.134Z,3.33
2018-07-25T14:32:33.464Z,3.50
2018-07-25T14:35:00.815Z,2.80
2018-07-25T14:37:28.222Z,3.30
2018-07-25T14:39:55.682Z,4.20
2018-07-25T14:42:23.030Z,3.00
2018-07-25T14:44:50.378Z,4.70
2018-07-25T14:47:17.801Z,2.77
2018-07-25T14:49:45.900Z,2.73
2018-07-25T14:52:13.262Z,3.53
2018-07-25T14:54:40.739Z,2.47
2018-07-25T14:57:08.092Z,2.80
2018-07-25T14:59:35.443Z,2.83
